Time;durP1;ratioP1;P1;durP2;ratioP2;P2;SDS_P1;SDS_P2;PMS_P1;PMS_P2;Temp;Humidity;BMP_temperature;BMP_pressure;BME280_temperature;BME280_humidity;BME280_pressure;Samples;Min_cycle;Max_cycle;Signal;HPM_P1;HPM_P2
2023/02/04 00:00:54;;;;;;;28.58;8.75;;;10.60;99.90;;;10.91;96.82;103217.63;5092263;28;20040;-64
2023/02/04 00:03:22;;;;;;;27.73;9.57;;;10.60;99.90;;;10.65;97.00;103192.97;5074270;28;20041;-64
2023/02/04 00:05:52;;;;;;;27.70;8.63;;;10.60;99.90;;;10.89;97.34;103216.69;5092268;28;20059;-64
2023/02/04 00:08:20;;;;;;;20.43;7.60;;;10.60;99.90;;;10.80;98.47;103219.03;5092537;28;20048;-65
2023/02/04 00:10:49;;;;;;;24.02;8.30;;;10.40;99.90;;;10.83;98.37;103221.78;5074346;28;20293;-64
2023/02/04 00:13:17;;;;;;;27.52;8.45;;;10.50;99.90;;;10.80;98.38;103222.56;5074242;28;20105;-64
2023/02/04 00:15:46;;;;;;;24.17;7.68;;;10.50;99.90;;;10.81;98.76;103264.09;5092496;28;20401;-65
2023/02/04 00:18:14;;;;;;;19.35;7.35;;;10.50;99.90;;;10.71;98.77;103216.97;5092316;28;20055;-64
2023/02/04 00:20:43;;;;;;;24.10;8.02;;;10.40;99.90;;;9.99;98.93;103106.94;5092148;28;20123;-64
2023/02/04 00:23:13;;;;;;;28.05;7.93;;;10.50;99.90;;;10.93;98.29;103234.47;5092308;28;20086;-64
2023/02/04 00:25:41;;;;;;;27.15;8.52;;;10.60;99.90;;;10.76;98.19;103223.31;5076598;28;20066;-65
2023/02/04 00:28:10;;;;;;;28.08;9.30;;;10.60;99.90;;;10.68;98.62;103226.56;5096017;28;20044;-64
2023/02/04 00:30:38;;;;;;;29.83;9.35;;;10.50;99.90;;;10.64;99.35;103203.50;5077797;28;20052;-64
2023/02/04 00:33:07;;;;;;;25.15;8.57;;;10.40;99.90;;;10.62;99.59;103203.47;5095869;28;20504;-65
2023/02/04 00:35:36;;;;;;;29.48;9.40;;;10.50;99.90;;;10.86;99.64;103216.56;5077651;28;20480;-64
2023/02/04 00:38:05;;;;;;;26.05;8.38;;;10.50;99.90;;;11.01;99.19;103217.06;5095889;28;20064;-64
2023/02/04 00:40:35;;;;;;;29.58;8.77;;;10.60;99.90;;;10.94;98.87;103217.72;5095482;28;20044;-64
2023/02/04 00:43:03;;;;;;;30.90;8.90;;;10.70;99.90;;;10.68;98.71;103171.00;5096050;28;20097;-64
2023/02/04 00:45:32;;;;;;;26.23;8.30;;;10.60;99.90;;;10.88;98.92;103196.31;5077404;28;20066;-64
2023/02/04 00:48:00;;;;;;;26.15;8.23;;;10.70;99.90;;;10.73;98.54;103162.34;5077435;28;20498;-64
2023/02/04 00:50:29;;;;;;;29.90;8.50;;;10.80;99.90;;;10.94;98.59;103217.72;5095669;28;20075;-64
2023/02/04 00:53:00;;;;;;;24.42;8.35;;;10.70;99.90;;;11.07;98.85;103233.13;5095319;28;20253;-64
2023/02/04 00:55:30;;;;;;;27.75;8.32;;;10.70;99.90;;;10.95;98.67;103215.97;5095593;28;20359;-64
2023/02/04 00:58:00;;;;;;;27.80;8.68;;;10.70;99.90;;;11.02;98.72;103240.03;5095376;28;20109;-65
2023/02/04 01:00:29;;;;;;;31.67;8.65;;;10.70;99.90;;;10.90;98.73;103211.44;5077295;28;20052;-64
2023/02/04 01:02:58;;;;;;;32.17;9.55;;;10.80;99.90;;;11.17;98.62;103234.34;5076849;28;20060;-64
2023/02/04 01:05:27;;;;;;;27.40;9.15;;;10.80;99.90;;;11.05;98.18;103237.50;5095208;28;20046;-64
2023/02/04 01:07:55;;;;;;;28.90;8.70;;;10.80;99.90;;;11.03;98.46;103230.34;5077105;28;20052;-64
2023/02/04 01:10:26;;;;;;;31.15;8.57;;;10.80;99.90;;;11.08;98.38;103241.97;5076373;28;20043;-64
2023/02/04 01:12:54;;;;;;;25.50;8.90;;;10.70;99.90;;;11.08;98.57;103231.38;5076330;28;20054;-64
2023/02/04 01:15:24;;;;;;;22.40;8.07;;;10.80;99.90;;;11.25;98.60;103249.59;5094494;28;20047;-64
2023/02/04 01:17:54;;;;;;;25.80;8.25;;;10.90;99.90;;;11.23;98.28;103259.25;5094484;28;20386;-64
2023/02/04 01:20:23;;;;;;;22.50;7.82;;;10.90;99.90;;;10.55;98.26;103137.06;5094274;28;20036;-64
2023/02/04 01:22:51;;;;;;;32.60;8.43;;;10.90;99.90;;;11.22;97.83;103265.44;5094441;28;20051;-64
2023/02/04 01:25:20;;;;;;;25.90;8.68;;;10.90;99.90;;;11.28;98.14;103252.38;5094274;28;20454;-64
2023/02/04 01:27:48;;;;;;;28.67;9.05;;;10.90;99.90;;;11.29;97.74;103248.84;5093977;28;20051;-64
2023/02/04 01:30:19;;;;;;;23.45;8.52;;;11.00;99.90;;;11.30;97.57;103268.31;5093970;28;20382;-64
2023/02/04 01:32:49;;;;;;;20.02;8.10;;;11.00;99.90;;;11.07;97.75;103269.34;5093920;28;20048;-64
2023/02/04 01:35:20;;;;;;;31.27;8.93;;;10.90;99.90;;;11.13;97.95;103261.59;5075546;28;20105;-65
2023/02/04 01:37:48;;;;;;;24.48;8.18;;;10.90;99.90;;;11.25;97.77;103280.50;5093711;28;20286;-64
2023/02/04 01:40:17;;;;;;;26.05;7.50;;;10.90;99.90;;;11.12;97.72;103260.69;5094007;28;20085;-64
2023/02/04 01:42:47;;;;;;;24.27;7.60;;;10.80;99.90;;;10.88;97.70;103231.66;5075662;28;20414;-64
2023/02/04 01:45:15;;;;;;;27.27;7.97;;;10.80;99.90;;;10.44;97.26;103154.31;5075358;28;20119;-64
2023/02/04 01:47:48;;;;;;;30.25;7.93;;;10.80;99.90;;;10.86;97.56;103243.03;5093564;28;20048;-64
2023/02/04 01:50:18;;;;;;;33.25;8.65;;;10.70;99.90;;;10.99;97.68;103262.88;5093772;28;20127;-64
2023/02/04 01:52:47;;;;;;;28.30;8.02;;;10.70;99.90;;;11.01;97.93;103266.50;5075783;28;20122;-64
2023/02/04 01:55:21;;;;;;;28.52;8.60;;;10.60;99.90;;;10.92;97.70;103272.38;5075530;28;20131;-64
2023/02/04 01:57:51;;;;;;;31.05;7.68;;;10.60;99.90;;;10.93;97.68;103274.19;5075587;28;20052;-64
2023/02/04 02:00:27;;;;;;;26.90;7.85;;;10.60;99.90;;;10.95;97.84;103256.59;5075539;28;20063;-65
2023/02/04 02:02:58;;;;;;;33.40;7.88;;;10.70;99.90;;;10.93;97.24;103247.72;5093524;28;20070;-64
2023/02/04 02:05:31;;;;;;;26.33;7.28;;;10.80;99.90;;;11.13;97.15;103288.09;5075248;28;20136;-64
2023/02/04 02:08:02;;;;;;;30.40;8.48;;;10.80;99.90;;;10.92;97.07;103251.19;5093685;28;20071;-64
2023/02/04 02:10:31;;;;;;;29.05;7.80;;;10.80;99.90;;;11.15;96.86;103286.38;5075065;28;20056;-64
2023/02/04 02:13:00;;;;;;;27.77;7.15;;;10.80;99.90;;;11.36;96.58;103295.00;5093547;28;20044;-64
2023/02/04 02:15:30;;;;;;;31.13;7.55;;;11.00;99.90;;;11.25;95.86;103280.50;5075384;28;20043;-64
2023/02/04 02:18:00;;;;;;;27.27;7.32;;;11.00;99.90;;;11.07;95.79;103253.44;5075146;28;20093;-64
2023/02/04 02:20:29;;;;;;;21.95;6.70;;;11.00;99.90;;;11.07;95.84;103282.56;5075595;28;20139;-64
2023/02/04 02:23:06;;;;;;;27.55;7.28;;;10.80;99.90;;;11.13;96.59;103286.31;5075486;28;20074;-64
2023/02/04 02:25:37;;;;;;;27.05;7.68;;;10.80;99.90;;;10.94;96.55;103278.63;5093271;28;20094;-64
2023/02/04 02:28:12;;;;;;;22.38;7.05;;;10.70;99.90;;;10.31;96.46;103170.63;5075428;28;20405;-64
2023/02/04 02:30:44;;;;;;;30.77;7.65;;;10.70;99.90;;;10.94;96.70;103283.91;5074652;28;20054;-64
2023/02/04 02:33:13;;;;;;;29.33;7.50;;;10.80;99.90;;;10.98;96.80;103296.41;5093152;28;20135;-65
2023/02/04 02:35:42;;;;;;;27.80;8.18;;;10.70;99.90;;;10.99;96.82;103297.31;5093041;28;20119;-64
2023/02/04 02:38:12;;;;;;;26.83;7.40;;;10.80;99.90;;;11.16;96.73;103318.22;5092872;28;20418;-64
2023/02/04 02:40:43;;;;;;;25.83;7.63;;;10.80;99.90;;;11.21;96.41;103324.53;5075090;28;20067;-74
2023/02/04 02:43:18;;;;;;;29.67;7.85;;;10.90;99.90;;;10.91;96.32;103267.94;5075643;28;20071;-73
2023/02/04 02:45:47;;;;;;;25.58;6.97;;;10.90;99.90;;;11.20;96.21;103312.16;5075610;28;20474;-73
2023/02/04 02:48:18;;;;;;;27.35;7.95;;;10.90;99.90;;;10.51;96.24;103199.53;5093025;28;20039;-73
2023/02/04 02:50:48;;;;;;;34.10;7.72;;;10.90;99.90;;;11.19;96.26;103304.19;5093459;28;20044;-73
2023/02/04 02:53:20;;;;;;;29.10;6.93;;;10.90;99.90;;;11.14;95.70;103319.00;5075516;28;20048;-73
2023/02/04 02:55:51;;;;;;;28.67;7.20;;;10.90;99.90;;;11.07;95.84;103291.41;5075500;28;20294;-74
2023/02/04 02:58:28;;;;;;;29.02;7.53;;;10.90;99.90;;;11.25;95.89;103352.03;5075497;28;20482;-74
2023/02/04 03:00:58;;;;;;;26.83;7.53;;;10.90;99.90;;;11.05;95.70;103269.28;5093620;28;20539;-74
2023/02/04 03:03:31;;;;;;;21.02;7.15;;;11.00;99.90;;;11.20;95.46;103300.66;5075432;28;20501;-75
2023/02/04 03:06:04;;;;;;;26.58;7.85;;;11.00;99.90;;;10.59;95.56;103182.16;5075358;28;20044;-75
2023/02/04 03:08:33;;;;;;;30.55;8.43;;;11.00;99.90;;;11.33;95.55;103303.75;5075349;28;20070;-75
2023/02/04 03:11:03;;;;;;;27.75;7.55;;;11.00;99.90;;;11.09;95.09;103271.16;5093417;28;20047;-73
2023/02/04 03:13:33;;;;;;;29.50;7.78;;;11.00;99.90;;;11.30;95.46;103295.72;5075289;28;20101;-73
2023/02/04 03:16:03;;;;;;;24.83;8.48;;;11.00;99.90;;;9.20;94.72;102911.31;5093773;28;20036;-73
2023/02/04 03:18:32;;;;;;;23.17;7.97;;;11.10;99.90;;;11.35;95.12;103286.16;5093300;28;20442;-73
2023/02/04 03:21:05;;;;;;;27.10;8.60;;;11.10;99.90;;;11.43;94.83;103305.84;5075263;28;20408;-74
2023/02/04 03:23:35;;;;;;;29.15;8.05;;;11.10;99.90;;;11.49;94.83;103298.06;5093042;28;20486;-73
2023/02/04 03:26:06;;;;;;;29.80;8.15;;;11.20;99.90;;;11.51;94.47;103292.81;5075137;28;20409;-74
2023/02/04 03:28:40;;;;;;;27.13;7.68;;;11.20;99.90;;;11.56;94.00;103307.09;5075177;28;20052;-74
2023/02/04 03:31:10;;;;;;;28.02;7.50;;;11.20;99.90;;;11.54;93.86;103304.41;5074972;28;20051;-74
2023/02/04 03:33:38;;;;;;;29.00;7.63;;;11.30;99.90;;;11.53;93.53;103305.28;5093497;28;20048;-74
2023/02/04 03:36:08;;;;;;;25.98;7.30;;;11.30;99.90;;;11.60;93.57;103316.94;5092934;28;20036;-73
2023/02/04 03:38:36;;;;;;;31.35;7.80;;;11.30;99.90;;;11.52;93.30;103303.47;5092866;28;20039;-74
2023/02/04 03:41:06;;;;;;;30.17;8.85;;;11.30;99.90;;;11.67;93.32;103319.00;5093162;28;20063;-73
2023/02/04 03:43:35;;;;;;;25.10;7.45;;;11.30;99.90;;;11.43;93.13;103274.03;5093096;28;20044;-73
2023/02/04 03:46:04;;;;;;;28.35;7.88;;;11.30;99.90;;;11.66;92.85;103304.81;5092998;28;20040;-73
2023/02/04 03:48:33;;;;;;;23.52;7.38;;;11.40;99.90;;;11.64;92.72;103319.75;5093402;28;20448;-73
2023/02/04 03:51:01;;;;;;;24.45;7.63;;;11.40;99.90;;;11.66;92.63;103315.44;5092766;28;20134;-73
2023/02/04 03:53:29;;;;;;;29.52;8.60;;;11.40;99.90;;;11.56;92.43;103297.41;5092775;28;20040;-73
2023/02/04 03:55:58;;;;;;;26.05;7.60;;;11.30;99.90;;;11.55;92.27;103290.31;5074897;28;20374;-73
2023/02/04 03:58:28;;;;;;;27.52;7.97;;;11.40;99.90;;;11.65;92.02;103310.97;5092903;28;20040;-74
2023/02/04 04:00:56;;;;;;;28.38;7.53;;;11.40;99.90;;;11.62;92.12;103307.28;5077707;28;20044;-73
2023/02/04 04:03:25;;;;;;;24.10;7.35;;;11.40;99.90;;;11.59;92.03;103300.13;5095557;28;20040;-73
2023/02/04 04:05:53;;;;;;;26.83;8.02;;;11.30;99.90;;;11.61;92.07;103319.63;5078519;28;20101;-73
2023/02/04 04:08:22;;;;;;;26.58;7.75;;;11.30;99.90;;;11.64;91.87;103325.06;5096800;28;20366;-73
2023/02/04 04:10:50;;;;;;;33.70;7.45;;;11.40;99.90;;;11.23;91.86;103288.41;5096623;28;20050;-73
2023/02/04 04:13:19;;;;;;;26.17;7.15;;;11.20;99.90;;;11.43;92.43;103336.72;5096361;28;20052;-73
2023/02/04 04:15:49;;;;;;;26.42;7.55;;;11.20;99.90;;;11.11;92.47;103264.16;5096642;28;20040;-73
2023/02/04 04:18:18;;;;;;;27.25;8.40;;;11.20;99.90;;;11.54;92.47;103337.97;5096522;28;20048;-73
2023/02/04 04:20:46;;;;;;;26.58;8.40;;;11.20;99.90;;;11.24;92.20;103276.06;5096254;28;20089;-73
2023/02/04 04:23:15;;;;;;;30.35;8.13;;;11.30;99.90;;;11.15;91.88;103257.25;5096198;28;20040;-74
2023/02/04 04:25:43;;;;;;;29.38;8.27;;;11.30;99.90;;;11.52;91.68;103345.88;5096101;28;20397;-73
2023/02/04 04:28:12;;;;;;;29.85;8.35;;;11.30;99.90;;;11.41;92.23;103339.34;5096432;28;20068;-73
2023/02/04 04:30:40;;;;;;;22.02;7.78;;;11.20;99.90;;;11.50;92.22;103365.22;5096334;28;20043;-73
2023/02/04 04:33:10;;;;;;;31.05;8.70;;;11.20;99.90;;;11.30;92.52;103324.88;5077815;28;20052;-74
2023/02/04 04:35:39;;;;;;;24.13;7.60;;;11.20;99.90;;;11.45;92.83;103354.50;5095929;28;20048;-73
2023/02/04 04:38:07;;;;;;;24.48;7.63;;;11.20;99.90;;;9.22;92.65;102979.16;5096185;28;20046;-73
2023/02/04 04:40:36;;;;;;;26.10;7.47;;;11.10;99.90;;;11.32;92.99;103340.81;5077885;28;20101;-73
2023/02/04 04:43:04;;;;;;;30.23;8.60;;;11.10;99.90;;;11.41;93.27;103360.53;5095780;28;20036;-73
2023/02/04 04:45:33;;;;;;;31.92;8.43;;;11.10;99.90;;;11.42;93.05;103356.16;5095645;28;20093;-74
2023/02/04 04:48:01;;;;;;;33.13;9.07;;;11.10;99.90;;;11.57;92.74;103368.16;5095669;28;20048;-73
2023/02/04 04:50:31;;;;;;;29.02;8.07;;;11.30;99.90;;;11.41;92.36;103347.28;5077721;28;20039;-74
2023/02/04 04:53:01;;;;;;;25.77;7.65;;;11.30;99.90;;;11.08;92.64;103287.00;5095764;28;20428;-74
2023/02/04 04:55:29;;;;;;;24.27;7.60;;;11.20;99.90;;;11.50;92.81;103392.63;5095473;28;20081;-74
2023/02/04 04:57:58;;;;;;;25.42;7.78;;;11.20;99.90;;;11.51;92.69;103365.28;5095567;28;20040;-73
2023/02/04 05:00:26;;;;;;;22.52;7.97;;;11.20;99.90;;;11.47;92.80;103366.03;5095736;28;20044;-74
2023/02/04 05:02:55;;;;;;;34.78;8.85;;;11.20;99.90;;;11.39;92.95;103367.53;5095406;28;20444;-74
2023/02/04 05:05:23;;;;;;;26.85;8.90;;;11.10;99.90;;;11.52;93.16;103371.47;5095327;28;20044;-74
2023/02/04 05:07:53;;;;;;;28.08;8.68;;;11.20;99.90;;;11.39;92.95;103354.28;5095551;28;20094;-73
2023/02/04 05:10:22;;;;;;;30.35;8.65;;;11.20;99.90;;;11.54;93.21;103367.13;5094948;28;20085;-74
2023/02/04 05:12:50;;;;;;;34.20;8.30;;;11.20;99.90;;;11.61;92.79;103354.09;5095604;28;20040;-74
2023/02/04 05:15:19;;;;;;;29.40;7.88;;;11.30;99.90;;;11.61;92.42;103354.09;5095240;28;20047;-74
2023/02/04 05:17:47;;;;;;;31.92;8.63;;;11.40;99.90;;;11.70;92.32;103359.75;5095075;28;20079;-74
2023/02/04 05:20:16;;;;;;;28.85;7.82;;;11.40;99.90;;;11.57;91.80;103360.19;5095127;28;20127;-74
2023/02/04 05:22:44;;;;;;;28.27;7.68;;;11.40;99.90;;;11.58;92.27;103364.63;5095088;28;20039;-74
2023/02/04 05:25:15;;;;;;;27.52;8.43;;;11.30;99.90;;;11.64;92.14;103356.88;5095019;28;20504;-74
2023/02/04 05:27:44;;;;;;;27.00;9.00;;;11.30;99.90;;;11.67;92.03;103364.94;5095254;28;20044;-73
2023/02/04 05:30:15;;;;;;;27.42;8.55;;;11.40;99.90;;;11.62;91.84;103349.72;5094873;28;20090;-74
2023/02/04 05:32:43;;;;;;;34.25;8.38;;;11.40;99.90;;;11.73;91.88;103374.81;5095196;28;20048;-74
2023/02/04 05:35:12;;;;;;;31.08;9.02;;;11.40;99.90;;;11.24;91.76;103308.75;5094803;28;20059;-74
2023/02/04 05:37:40;;;;;;;23.30;8.07;;;11.50;99.90;;;11.72;91.75;103378.34;5094790;28;20048;-74
2023/02/04 05:40:10;;;;;;;23.23;7.68;;;11.50;99.90;;;11.64;91.60;103382.47;5076825;28;20042;-73
2023/02/04 05:42:40;;;;;;;27.45;8.88;;;11.40;99.90;;;11.68;91.54;103387.06;5094692;28;20101;-73
2023/02/04 05:45:14;;;;;;;32.10;9.30;;;11.40;99.90;;;11.60;91.86;103384.13;5094716;28;20497;-74
2023/02/04 05:47:43;;;;;;;32.85;8.82;;;11.40;99.90;;;11.57;91.61;103370.78;5094564;28;20490;-74
2023/02/04 05:50:12;;;;;;;35.72;8.32;;;11.40;99.90;;;11.68;91.57;103376.44;5095047;28;20051;-74
2023/02/04 05:52:40;;;;;;;24.83;8.07;;;11.40;99.90;;;11.68;91.35;103387.06;5094470;28;20127;-73
2023/02/04 05:55:11;;;;;;;27.15;8.73;;;11.40;99.90;;;11.61;91.46;103390.34;5094684;28;20089;-74
2023/02/04 05:57:41;;;;;;;27.13;9.07;;;11.30;99.90;;;11.40;91.54;103358.72;5094401;28;20486;-74
2023/02/04 06:00:13;;;;;;;23.67;8.07;;;11.30;99.90;;;11.49;91.50;103387.28;5094667;28;20046;-74
2023/02/04 06:02:42;;;;;;;27.00;7.93;;;11.20;99.90;;;11.50;91.76;103395.28;5094357;28;20113;-73
2023/02/04 06:05:10;;;;;;;30.70;9.52;;;11.20;99.90;;;11.47;91.91;103391.63;5094571;28;20040;-74
2023/02/04 06:07:39;;;;;;;31.20;9.88;;;11.20;99.90;;;11.37;92.06;103377.19;5094087;28;20064;-73
2023/02/04 06:10:08;;;;;;;27.27;8.73;;;11.20;99.90;;;11.42;92.14;103383.53;5094200;28;20086;-74
2023/02/04 06:12:36;;;;;;;29.67;8.80;;;11.20;99.90;;;11.44;92.17;103402.16;5094408;28;20048;-74
2023/02/04 06:15:08;;;;;;;31.63;9.20;;;11.20;99.90;;;11.10;92.20;103344.50;5094040;28;20044;-74
2023/02/04 06:17:37;;;;;;;28.42;8.93;;;11.20;99.90;;;11.59;91.86;103414.13;5093982;28;20052;-74
2023/02/04 06:20:07;;;;;;;25.13;9.50;;;11.30;99.90;;;11.52;91.73;103404.19;5075713;28;20070;-74
2023/02/04 06:22:35;;;;;;;24.10;8.20;;;11.30;99.90;;;11.55;91.83;103424.59;5093540;28;20614;-74
2023/02/04 06:25:04;;;;;;;33.50;9.82;;;11.30;99.90;;;11.58;91.99;103419.38;5094368;28;20067;-74
2023/02/04 06:27:33;;;;;;;30.13;9.00;;;11.30;99.90;;;11.25;91.87;103360.88;5075832;28;20439;-74
2023/02/04 06:30:01;;;;;;;32.60;9.52;;;11.30;99.90;;;11.44;91.90;103381.81;5093766;28;20122;-74
2023/02/04 06:32:31;;;;;;;31.00;9.95;;;11.30;99.90;;;11.58;91.49;103408.78;5093918;28;20081;-74
2023/02/04 06:35:00;;;;;;;26.70;9.10;;;11.40;99.90;;;11.70;91.46;103422.47;5093985;28;20036;-74
2023/02/04 06:37:28;;;;;;;39.22;9.23;;;11.40;99.90;;;11.59;91.26;103415.91;5093652;28;20505;-74
2023/02/04 06:39:57;;;;;;;34.65;9.73;;;11.40;99.90;;;11.68;91.58;103432.13;5093874;28;20040;-74
2023/02/04 06:42:26;;;;;;;31.77;9.77;;;11.40;99.90;;;11.73;91.36;103430.50;5075659;28;20485;-75
2023/02/04 06:44:57;;;;;;;28.35;9.85;;;11.40;99.90;;;11.77;91.25;103430.66;5075544;28;20417;-75
2023/02/04 06:47:26;;;;;;;31.60;10.35;;;11.50;99.90;;;11.78;91.08;103434.22;5093683;28;20040;-76
2023/02/04 06:49:56;;;;;;;25.40;10.10;;;11.50;99.90;;;11.70;90.96;103431.34;5093363;28;20050;-75
2023/02/04 06:52:24;;;;;;;31.55;10.45;;;11.50;99.90;;;11.25;90.71;103339.69;5093740;28;20448;-75
2023/02/04 06:54:53;;;;;;;30.33;10.70;;;11.50;99.90;;;11.76;90.69;103439.50;5093409;28;20123;-75
2023/02/04 06:57:22;;;;;;;35.67;11.68;;;11.50;99.90;;;11.75;90.76;103429.72;5093340;28;20028;-75
2023/02/04 06:59:50;;;;;;;35.95;12.63;;;11.50;99.90;;;11.45;90.68;103373.03;5093640;28;20043;-75
2023/02/04 07:02:19;;;;;;;32.60;11.60;;;11.50;99.90;;;11.43;90.59;103374.75;5075410;28;20044;-76
2023/02/04 07:04:48;;;;;;;37.60;12.38;;;11.50;99.90;;;11.65;90.33;103414.38;5093302;28;20040;-76
2023/02/04 07:07:18;;;;;;;39.63;12.60;;;11.50;99.90;;;11.73;90.60;103425.22;5093191;28;20044;-76
2023/02/04 07:09:46;;;;;;;36.85;13.07;;;11.50;99.90;;;11.18;90.55;103332.41;5074823;28;20047;-76
2023/02/04 07:12:15;;;;;;;37.60;12.00;;;11.50;99.90;;;11.44;90.40;103371.22;5093163;28;20115;-76
2023/02/04 07:14:46;;;;;;;35.92;12.77;;;11.50;99.90;;;11.69;90.66;103423.34;5075201;28;20136;-76
2023/02/04 07:17:15;;;;;;;33.17;11.60;;;11.50;99.90;;;11.36;90.78;103380.69;5074812;28;20048;-76
2023/02/04 07:19:43;;;;;;;31.88;12.63;;;11.50;99.90;;;11.77;90.97;103451.88;5093033;28;20040;-75
2023/02/04 07:22:12;;;;;;;34.60;12.52;;;11.60;99.90;;;11.83;90.87;103450.31;5092987;28;20044;-76
2023/02/04 07:24:42;;;;;;;36.20;12.75;;;11.60;99.90;;;11.82;90.83;103454.69;5093293;28;20032;-76
2023/02/04 07:27:10;;;;;;;37.55;12.32;;;11.60;99.90;;;11.69;90.74;103434.81;5093246;28;20501;-76
2023/02/04 07:29:39;;;;;;;32.08;11.25;;;11.60;99.90;;;11.74;91.06;103457.09;5092988;28;20386;-75
2023/02/04 07:32:07;;;;;;;33.45;12.02;;;11.50;99.90;;;11.49;91.16;103425.31;5093108;28;20039;-75
2023/02/04 07:34:36;;;;;;;40.38;13.35;;;11.50;99.90;;;11.50;91.49;103432.41;5095218;28;20040;-76
2023/02/04 07:37:04;;;;;;;30.02;12.23;;;11.40;99.90;;;11.69;91.57;103460.47;5097008;28;20127;-75
2023/02/04 07:39:33;;;;;;;33.42;12.75;;;11.40;99.90;;;11.66;91.55;103471.84;5097520;28;20048;-76
2023/02/04 07:42:05;;;;;;;32.60;12.77;;;11.40;99.90;;;11.42;92.05;103471.00;5079055;28;20044;-74
2023/02/04 07:44:43;;;;;;;35.05;13.40;;;11.20;99.90;;;9.37;94.02;103184.84;5079108;28;20367;-74
2023/02/04 07:47:11;;;;;;;36.95;14.05;;;10.70;99.90;;;11.05;94.78;103478.53;5096736;28;20044;-75
2023/02/04 07:49:40;;;;;;;37.35;14.63;;;10.80;99.90;;;9.56;94.62;103219.91;5096986;28;20070;-75
2023/02/04 07:52:08;;;;;;;37.38;14.52;;;10.80;99.90;;;11.11;94.96;103480.50;5078944;28;20048;-75
2023/02/04 07:54:37;;;;;;;35.78;15.50;;;10.80;99.90;;;9.98;95.07;103311.38;5096713;28;20063;-75
2023/02/04 07:57:06;;;;;;;38.17;13.77;;;10.60;99.90;;;10.86;95.59;103425.75;5096593;28;20075;-75
2023/02/04 07:59:35;;;;;;;37.25;15.13;;;10.70;99.90;;;11.06;95.55;103459.13;5096456;28;20516;-76
2023/02/04 08:02:03;;;;;;;38.90;15.75;;;10.80;99.90;;;11.16;95.52;103468.31;5078765;28;20044;-75
2023/02/04 08:04:32;;;;;;;41.22;15.32;;;10.90;99.90;;;11.22;95.35;103463.22;5096523;28;20070;-75
2023/02/04 08:07:01;;;;;;;32.72;14.73;;;10.90;99.90;;;11.14;95.13;103460.31;5096486;28;20063;-80
2023/02/04 08:09:29;;;;;;;37.22;14.63;;;11.00;99.90;;;11.12;94.87;103446.13;5078340;28;20054;-78
2023/02/04 08:11:58;;;;;;;36.08;14.68;;;11.00;99.90;;;11.03;94.65;103426.34;5078352;28;20127;-77
2023/02/04 08:14:28;;;;;;;35.25;14.43;;;11.10;99.90;;;11.16;94.79;103471.88;5096344;28;20044;-81
2023/02/04 08:16:57;;;;;;;41.83;14.83;;;11.10;99.90;;;11.41;94.60;103506.31;5096448;28;20044;-85
2023/02/04 08:19:25;;;;;;;38.88;14.82;;;11.10;99.90;;;11.04;94.56;103450.25;5096596;28;20726;-78
2023/02/04 08:21:54;;;;;;;44.72;16.25;;;11.00;99.90;;;11.28;94.69;103487.28;5096217;28;20536;-79
2023/02/04 08:24:25;;;;;;;39.92;15.43;;;11.00;99.90;;;11.01;94.73;103425.41;5078190;28;20067;-81
2023/02/04 08:26:54;;;;;;;37.60;14.93;;;11.10;99.90;;;10.47;94.69;103358.16;5096143;28;20543;-82
2023/02/04 08:29:24;;;;;;;37.58;14.98;;;11.20;99.90;;;11.15;94.28;103429.44;5096262;28;20114;-78
2023/02/04 08:31:54;;;;;;;31.98;14.63;;;11.20;99.90;;;11.66;94.23;103498.38;5096091;28;20485;-79
2023/02/04 08:34:22;;;;;;;34.00;14.30;;;11.30;99.90;;;11.71;94.00;103499.41;5095997;28;20044;-78
2023/02/04 08:36:51;;;;;;;33.08;13.77;;;11.40;99.90;;;10.95;93.89;103357.22;5095965;28;20078;-80
2023/02/04 08:39:20;;;;;;;38.67;14.93;;;11.40;99.90;;;11.69;93.85;103485.19;5077849;28;20073;-78
2023/02/04 08:41:50;;;;;;;37.43;15.23;;;11.50;99.90;;;11.75;93.72;103493.38;5095934;28;20040;-78
2023/02/04 08:44:18;;;;;;;33.25;13.60;;;11.60;99.90;;;11.89;93.56;103517.69;5077825;28;20079;-83
2023/02/04 08:46:47;;;;;;;32.92;14.50;;;11.60;99.90;;;11.65;93.80;103482.38;5094875;28;20039;-79
2023/02/04 08:49:17;;;;;;;35.45;14.38;;;11.60;99.90;;;11.85;93.63;103523.72;5077423;28;20101;-79
2023/02/04 08:51:46;;;;;;;32.95;13.77;;;11.60;99.90;;;11.21;93.99;103408.41;5096059;28;20436;-72
2023/02/04 08:54:14;;;;;;;41.42;14.40;;;11.50;99.90;;;11.84;94.02;103527.25;5095622;28;20124;-73
2023/02/04 08:56:44;;;;;;;33.28;13.60;;;11.50;99.90;;;11.85;94.03;103513.13;5077736;28;20443;-72
2023/02/04 08:59:12;;;;;;;37.95;14.55;;;11.60;99.90;;;11.58;93.68;103460.06;5095818;28;20040;-73
2023/02/04 09:01:41;;;;;;;37.80;14.30;;;11.70;99.90;;;10.99;93.51;103375.03;5095747;28;20040;-75
2023/02/04 09:04:10;;;;;;;32.53;13.15;;;11.60;99.90;;;11.89;93.46;103514.13;5095434;28;20042;-73
2023/02/04 09:06:42;;;;;;;38.67;14.73;;;11.70;99.90;;;11.77;92.86;103509.31;5095343;28;20063;-78
2023/02/04 09:09:11;;;;;;;35.03;13.75;;;11.60;99.90;;;11.92;93.05;103539.03;5077397;28;20044;-74
2023/02/04 09:11:41;;;;;;;33.97;14.20;;;11.60;99.90;;;11.93;92.61;103538.16;5095479;28;20474;-71
2023/02/04 09:14:09;;;;;;;30.67;13.25;;;11.60;99.90;;;11.95;92.58;103538.19;5077309;28;20048;-81
2023/02/04 09:16:38;;;;;;;31.95;13.10;;;11.60;99.90;;;12.02;92.45;103537.56;5077151;28;20040;-73
2023/02/04 09:19:11;;;;;;;33.58;13.30;;;11.70;99.90;;;12.04;91.88;103541.19;5077071;28;20062;-73
2023/02/04 09:21:41;;;;;;;29.85;12.40;;;11.70;99.90;;;12.08;91.38;103543.06;5077310;28;20070;-73
2023/02/04 09:24:09;;;;;;;27.52;11.20;;;11.80;99.90;;;12.09;90.69;103552.81;5095124;28;20067;-72
2023/02/04 09:26:38;;;;;;;35.63;11.20;;;11.80;99.90;;;12.01;90.58;103526.03;5095291;28;20127;-72
2023/02/04 09:29:06;;;;;;;32.33;10.00;;;11.90;99.90;;;11.92;90.07;103509.84;5095093;28;20040;-73
2023/02/04 09:31:35;;;;;;;34.20;10.25;;;11.90;99.90;;;12.15;89.68;103548.63;5095105;28;20067;-72
2023/02/04 09:34:04;;;;;;;20.52;8.38;;;11.90;99.90;;;11.76;89.38;103473.97;5094701;28;20038;-72
2023/02/04 09:36:36;;;;;;;19.05;7.28;;;12.00;99.90;;;9.90;88.87;103143.63;5094981;28;20059;-71
2023/02/04 09:39:08;;;;;;;25.80;7.38;;;12.00;99.90;;;12.25;88.47;103563.09;5094741;28;20126;-70
2023/02/04 09:41:39;;;;;;;23.90;7.60;;;12.00;99.90;;;12.16;88.19;103566.34;5094960;28;20067;-71
2023/02/04 09:44:12;;;;;;;;;;;11.90;99.90;;;12.13;88.52;103552.06;5095694;28;20040;-70
2023/02/04 09:46:42;;;;;;;27.17;8.95;;;12.00;99.90;;;11.53;88.63;103442.22;5094645;28;19931;-71
2023/02/04 09:49:11;;;;;;;22.00;8.73;;;12.00;99.90;;;11.70;88.70;103455.19;5094381;28;20485;-72
2023/02/04 09:51:39;;;;;;;22.38;9.45;;;12.00;99.90;;;12.37;88.61;103563.44;5094322;28;20089;-73
2023/02/04 09:54:14;;;;;;;22.80;9.00;;;12.10;99.90;;;12.21;88.34;103545.25;5094848;28;20066;-73
2023/02/04 09:56:43;;;;;;;24.38;9.40;;;12.10;99.90;;;12.12;88.31;103514.00;5076045;28;20048;-72
2023/02/04 09:59:15;;;;;;;28.10;10.32;;;12.10;99.90;;;12.16;87.90;103515.00;5075903;28;20101;-72
2023/02/04 10:01:43;;;;;;;26.73;10.18;;;12.20;99.90;;;12.56;87.78;103587.09;5094661;28;20481;-73
2023/02/04 10:04:14;;;;;;;27.17;10.40;;;12.30;99.90;;;12.63;87.59;103589.06;5076297;28;20040;-73
2023/02/04 10:06:44;;;;;;;;;;;12.30;99.90;;;12.15;87.45;103534.44;5076531;28;20075;-76
2023/02/04 10:09:16;;;;;;;28.13;10.48;;;12.30;99.90;;;12.42;87.56;103583.09;5094427;28;19927;-73
2023/02/04 10:11:47;;;;;;;26.40;12.07;;;12.20;99.90;;;12.42;87.85;103583.09;5094006;28;20048;-73
2023/02/04 10:14:20;;;;;;;30.88;12.07;;;12.20;99.90;;;11.74;88.09;103450.91;5094030;28;20050;-73